createdAt,value
2024-04-12T00:01:50.878Z,5.39
2024-04-12T00:04:22.294Z,4.78
2024-04-12T00:06:51.257Z,5.00
2024-04-12T00:09:19.859Z,5.21
2024-04-12T00:11:53.298Z,4.94
2024-04-12T00:14:23.319Z,5.06
2024-04-12T00:16:53.814Z,5.05
2024-04-12T00:19:24.242Z,5.05
2024-04-12T00:21:58.292Z,4.96
2024-04-12T00:24:26.329Z,4.67
2024-04-12T00:26:57.385Z,4.95
2024-04-12T00:29:32.265Z,4.89
2024-04-12T00:32:15.623Z,4.91
2024-04-12T00:34:49.857Z,5.09
2024-04-12T00:37:18.804Z,4.75
2024-04-12T00:39:51.976Z,4.80
2024-04-12T00:42:49.499Z,5.13
2024-04-12T00:45:22.440Z,4.77
2024-04-12T00:47:50.358Z,5.05
2024-04-12T00:50:17.942Z,4.38
2024-04-12T00:52:45.576Z,4.50
2024-04-12T00:55:15.139Z,4.77
2024-04-12T00:57:42.414Z,4.62
2024-04-12T01:00:11.884Z,5.04
2024-04-12T01:02:44.436Z,4.90
2024-04-12T01:05:18.959Z,5.09
2024-04-12T01:07:57.776Z,5.02
2024-04-12T01:10:27.778Z,4.93
2024-04-12T01:12:58.077Z,4.53
2024-04-12T01:15:26.750Z,5.21
2024-04-12T01:17:54.225Z,5.03
2024-04-12T01:20:26.832Z,4.96
2024-04-12T01:22:59.637Z,4.52
2024-04-12T01:25:30.749Z,4.79
2024-04-12T01:27:58.591Z,4.78
2024-04-12T01:30:26.292Z,4.75
2024-04-12T01:32:53.262Z,4.61
2024-04-12T01:35:23.998Z,4.98
2024-04-12T01:37:54.131Z,4.71
2024-04-12T01:40:24.584Z,4.93
2024-04-12T01:42:53.433Z,4.74
2024-04-12T01:45:28.950Z,4.69
2024-04-12T01:47:56.859Z,4.96
2024-04-12T01:50:24.288Z,4.84
2024-04-12T01:52:56.330Z,4.85
2024-04-12T01:55:26.474Z,4.96
2024-04-12T01:57:57.090Z,4.77
2024-04-12T02:00:26.079Z,4.47
2024-04-12T02:02:55.718Z,4.76
2024-04-12T02:05:31.096Z,4.33
2024-04-12T02:08:00.588Z,4.48
2024-04-12T02:10:28.244Z,4.80
2024-04-12T02:12:55.528Z,4.23
2024-04-12T02:15:29.649Z,4.93
2024-04-12T02:17:59.640Z,4.57
2024-04-12T02:20:35.682Z,4.80
2024-04-12T02:23:06.482Z,4.78
2024-04-12T02:25:38.696Z,4.80
2024-04-12T02:28:10.847Z,4.90
2024-04-12T02:30:43.322Z,5.07
2024-04-12T02:33:15.969Z,5.18
2024-04-12T02:35:43.439Z,4.94
2024-04-12T02:38:22.719Z,5.31
2024-04-12T02:40:50.230Z,5.20
2024-04-12T02:43:17.894Z,4.75
2024-04-12T02:45:56.563Z,5.22
2024-04-12T02:48:23.938Z,5.32
2024-04-12T02:50:55.926Z,5.46
2024-04-12T02:53:31.046Z,5.59
2024-04-12T02:56:26.311Z,5.58
2024-04-12T02:58:54.728Z,5.68
2024-04-12T03:01:24.655Z,5.98
2024-04-12T03:03:57.867Z,5.64
2024-04-12T03:06:27.377Z,5.86
2024-04-12T03:09:01.944Z,6.17
2024-04-12T03:11:38.751Z,6.24
2024-04-12T03:14:11.728Z,6.06
2024-04-12T03:16:43.215Z,6.37
2024-04-12T03:19:16.932Z,6.12
2024-04-12T03:21:44.790Z,6.08
2024-04-12T03:24:12.800Z,5.87
2024-04-12T03:26:40.323Z,6.37
2024-04-12T03:29:07.674Z,6.50
2024-04-12T03:31:40.344Z,6.68
2024-04-12T03:34:09.259Z,6.65
2024-04-12T03:36:38.076Z,6.63
2024-04-12T03:39:23.981Z,6.66
2024-04-12T03:41:53.787Z,6.99
2024-04-12T03:44:32.618Z,6.94
2024-04-12T03:47:11.031Z,6.97
2024-04-12T03:49:41.976Z,7.09
2024-04-12T03:52:13.883Z,7.18
2024-04-12T03:54:42.652Z,7.21
2024-04-12T03:57:11.282Z,7.00
2024-04-12T03:59:39.935Z,7.32
2024-04-12T04:02:10.273Z,7.19
2024-04-12T04:04:39.178Z,7.19
2024-04-12T04:07:07.438Z,7.24
2024-04-12T04:09:34.839Z,7.30
2024-04-12T04:12:02.753Z,7.29
2024-04-12T04:14:32.228Z,7.14
2024-04-12T04:17:03.420Z,7.32
2024-04-12T04:19:35.151Z,7.75
2024-04-12T04:22:21.775Z,7.86
2024-04-12T04:24:49.550Z,7.86
2024-04-12T04:27:17.113Z,7.92
2024-04-12T04:29:45.523Z,7.76
2024-04-12T04:32:12.528Z,7.76
2024-04-12T04:34:39.596Z,7.73
2024-04-12T04:37:11.461Z,7.91
2024-04-12T04:39:45.236Z,8.18
2024-04-12T04:42:15.043Z,7.95
2024-04-12T04:44:42.558Z,8.50
2024-04-12T04:47:11.349Z,8.18
2024-04-12T04:49:39.888Z,7.98
2024-04-12T04:52:09.895Z,8.47
2024-04-12T04:54:41.141Z,8.34
2024-04-12T04:57:08.474Z,8.66
2024-04-12T04:59:37.022Z,9.04
2024-04-12T05:02:04.049Z,9.62
2024-04-12T05:04:33.685Z,10.07
2024-04-12T05:07:00.828Z,10.80
2024-04-12T05:09:31.655Z,11.41
2024-04-12T05:12:01.611Z,12.62
2024-04-12T05:14:38.424Z,13.38
2024-04-12T05:17:07.915Z,14.26
2024-04-12T05:19:42.316Z,15.29
2024-04-12T05:22:12.055Z,16.20
2024-04-12T05:24:41.668Z,16.94
2024-04-12T05:27:13.296Z,17.61
2024-04-12T05:29:42.254Z,18.68
2024-04-12T05:32:11.625Z,19.23
2024-04-12T05:34:38.578Z,19.70
2024-04-12T05:37:05.714Z,20.52
2024-04-12T05:39:43.490Z,21.29
2024-04-12T05:42:11.503Z,21.49
2024-04-12T05:44:41.343Z,21.63
2024-04-12T05:47:08.522Z,21.92
2024-04-12T05:49:35.571Z,21.85
2024-04-12T05:52:02.893Z,21.72
2024-04-12T05:54:41.474Z,21.57
2024-04-12T05:57:09.181Z,20.82
2024-04-12T05:59:36.551Z,20.74
2024-04-12T06:02:07.290Z,20.38
2024-04-12T06:04:37.739Z,20.31
2024-04-12T06:07:12.996Z,20.21
2024-04-12T06:09:40.919Z,19.99
2024-04-12T06:12:09.311Z,20.05
2024-04-12T06:14:43.923Z,20.38
2024-04-12T06:17:11.200Z,20.30
2024-04-12T06:19:39.834Z,20.64
2024-04-12T06:22:16.965Z,20.68
2024-04-12T06:24:44.575Z,20.94
2024-04-12T06:27:11.904Z,21.46
2024-04-12T06:29:39.555Z,22.01
2024-04-12T06:32:09.143Z,23.04
2024-04-12T06:34:39.530Z,23.60
2024-04-12T06:37:10.250Z,24.73
2024-04-12T06:39:38.365Z,25.92
2024-04-12T06:42:05.973Z,26.58
2024-04-12T06:44:33.353Z,27.53
2024-04-12T06:47:00.343Z,28.65
2024-04-12T06:49:30.279Z,29.57
2024-04-12T06:52:13.335Z,30.01
2024-04-12T06:54:46.461Z,31.18
2024-04-12T06:57:26.587Z,32.11
2024-04-12T07:00:00.393Z,33.02
2024-04-12T07:02:31.665Z,33.72
2024-04-12T07:05:00.594Z,34.31
2024-04-12T07:07:30.280Z,34.95
2024-04-12T07:10:03.021Z,35.84
2024-04-12T07:12:34.247Z,36.44
2024-04-12T07:15:02.142Z,37.01
2024-04-12T07:17:30.629Z,37.69
2024-04-12T07:20:01.316Z,38.27
2024-04-12T07:22:29.083Z,38.87
2024-04-12T07:24:57.439Z,39.35
2024-04-12T07:27:29.338Z,39.66
2024-04-12T07:29:56.906Z,40.23
2024-04-12T07:32:24.776Z,40.41
2024-04-12T07:34:52.849Z,41.05
2024-04-12T07:37:33.528Z,41.31
2024-04-12T07:40:16.737Z,41.55
2024-04-12T07:42:47.508Z,41.98
2024-04-12T07:45:21.736Z,42.00
2024-04-12T07:47:55.022Z,42.41
2024-04-12T07:50:30.713Z,42.61
2024-04-12T07:53:11.887Z,42.98
2024-04-12T07:55:44.567Z,42.99
2024-04-12T07:58:13.823Z,43.42
2024-04-12T08:00:47.711Z,43.76
2024-04-12T08:03:18.079Z,44.04
2024-04-12T08:06:04.414Z,44.10
2024-04-12T08:08:33.249Z,44.65
2024-04-12T08:11:12.749Z,44.91
2024-04-12T08:13:45.772Z,45.08
2024-04-12T08:16:16.147Z,45.28
2024-04-12T08:18:45.115Z,45.60
2024-04-12T08:21:14.038Z,45.59
2024-04-12T08:23:44.692Z,45.78
2024-04-12T08:26:13.463Z,45.82
2024-04-12T08:28:45.171Z,45.90
2024-04-12T08:31:12.437Z,45.80
2024-04-12T08:33:46.868Z,45.99
2024-04-12T08:36:18.462Z,46.43
2024-04-12T08:39:08.515Z,46.48
2024-04-12T08:41:39.332Z,46.26
2024-04-12T08:44:12.678Z,46.17
2024-04-12T08:46:44.660Z,46.73
2024-04-12T08:49:15.560Z,46.86
2024-04-12T08:51:43.890Z,47.06
2024-04-12T08:54:12.944Z,47.10
2024-04-12T08:56:40.683Z,47.35
2024-04-12T08:59:08.156Z,47.51
2024-04-12T09:01:42.057Z,47.52
2024-04-12T09:04:17.287Z,47.49
2024-04-12T09:06:50.024Z,47.62
2024-04-12T09:09:18.669Z,47.55
2024-04-12T09:11:46.732Z,47.51
2024-04-12T09:14:21.640Z,47.27
2024-04-12T09:16:54.602Z,46.93
2024-04-12T09:19:25.871Z,47.14
2024-04-12T09:22:00.209Z,47.36
2024-04-12T09:24:32.804Z,47.39
2024-04-12T09:27:11.575Z,47.34
2024-04-12T09:29:45.063Z,47.27
2024-04-12T09:32:31.584Z,47.67
2024-04-12T09:35:03.783Z,47.87
2024-04-12T09:37:44.114Z,47.81
2024-04-12T09:40:12.927Z,48.03
2024-04-12T09:43:11.710Z,47.98
2024-04-12T09:45:54.699Z,48.19
2024-04-12T09:48:40.573Z,48.40
2024-04-12T09:51:26.513Z,48.56
2024-04-12T09:54:12.270Z,48.46
2024-04-12T09:56:59.225Z,48.59
2024-04-12T09:59:48.776Z,48.65
2024-04-12T10:02:43.135Z,48.65
2024-04-12T10:05:31.878Z,48.54
2024-04-12T10:08:31.509Z,48.58
2024-04-12T10:11:20.523Z,48.37
2024-04-12T10:14:09.469Z,48.17
2024-04-12T10:17:02.098Z,48.15
2024-04-12T10:19:47.633Z,47.82
2024-04-12T10:22:34.050Z,47.69
2024-04-12T10:25:22.100Z,47.94
2024-04-12T10:28:12.327Z,47.54
2024-04-12T10:31:04.339Z,47.32
2024-04-12T10:33:50.276Z,46.83
2024-04-12T10:36:36.379Z,46.49
2024-04-12T10:39:13.628Z,46.06
2024-04-12T10:41:43.029Z,45.41
2024-04-12T10:44:12.035Z,45.00
2024-04-12T10:46:39.048Z,44.44
2024-04-12T10:49:07.034Z,44.00
2024-04-12T10:51:40.563Z,43.63
2024-04-12T10:54:11.819Z,43.40
2024-04-12T10:56:49.336Z,43.49
2024-04-12T10:59:28.856Z,43.23
2024-04-12T11:01:58.605Z,42.98
2024-04-12T11:04:30.284Z,42.70
2024-04-12T11:06:57.488Z,42.51
2024-04-12T11:09:39.684Z,41.61
2024-04-12T11:12:12.277Z,41.65
2024-04-12T11:14:40.089Z,40.80
2024-04-12T11:17:27.424Z,40.60
2024-04-12T11:20:12.761Z,40.24
2024-04-12T11:22:58.390Z,39.42
2024-04-12T11:25:43.925Z,38.81
2024-04-12T11:28:30.513Z,38.26
2024-04-12T11:31:17.117Z,37.94
2024-04-12T11:33:48.659Z,37.39
2024-04-12T11:36:22.932Z,36.63
2024-04-12T11:38:54.693Z,36.21
2024-04-12T11:41:25.459Z,34.81
2024-04-12T11:43:53.612Z,35.25
2024-04-12T11:46:25.314Z,34.73
2024-04-12T11:48:55.525Z,34.37
2024-04-12T11:51:23.305Z,33.94
2024-04-12T11:53:52.012Z,33.41
2024-04-12T11:56:19.340Z,33.40
2024-04-12T11:58:46.402Z,33.03
2024-04-12T12:01:14.686Z,32.74
2024-04-12T12:03:42.071Z,32.41
2024-04-12T12:06:09.204Z,32.12
2024-04-12T12:08:41.896Z,31.66
2024-04-12T12:11:13.220Z,31.80
2024-04-12T12:13:43.920Z,31.46
2024-04-12T12:16:16.616Z,31.50
2024-04-12T12:18:46.287Z,31.37
2024-04-12T12:21:13.860Z,31.23
2024-04-12T12:23:41.297Z,30.92
2024-04-12T12:26:10.482Z,30.66
2024-04-12T12:28:37.592Z,30.43
2024-04-12T12:31:07.667Z,30.10
2024-04-12T12:33:39.954Z,30.22
2024-04-12T12:36:07.406Z,30.11
2024-04-12T12:38:34.908Z,29.56
2024-04-12T12:41:01.863Z,29.78
2024-04-12T12:43:29.932Z,29.66
2024-04-12T12:46:01.473Z,29.64
2024-04-12T12:48:29.525Z,29.37
2024-04-12T12:50:57.529Z,29.28
2024-04-12T12:53:28.283Z,29.20
2024-04-12T12:55:56.695Z,28.92
2024-04-12T12:58:26.856Z,28.41
2024-04-12T13:01:01.501Z,28.50
2024-04-12T13:03:32.232Z,28.25
2024-04-12T13:06:08.106Z,28.19
2024-04-12T13:08:41.820Z,27.85
2024-04-12T13:11:10.293Z,27.48
2024-04-12T13:13:41.602Z,26.58
2024-04-12T13:16:12.962Z,27.11
2024-04-12T13:18:46.564Z,27.05
2024-04-12T13:21:14.425Z,26.61
2024-04-12T13:23:42.566Z,26.51
2024-04-12T13:26:10.305Z,26.38
2024-04-12T13:28:37.599Z,26.32
2024-04-12T13:31:05.122Z,26.17
2024-04-12T13:33:32.526Z,26.23
2024-04-12T13:36:01.791Z,25.77
2024-04-12T13:38:28.829Z,26.09
2024-04-12T13:41:02.487Z,25.79
2024-04-12T13:43:30.627Z,25.90
2024-04-12T13:46:16.225Z,25.38
2024-04-12T13:49:02.361Z,25.72
2024-04-12T13:51:34.837Z,25.50
2024-04-12T13:54:02.336Z,25.30
2024-04-12T13:56:29.878Z,25.19
2024-04-12T13:59:00.829Z,25.23
2024-04-12T14:01:30.788Z,24.27
2024-04-12T14:04:03.459Z,24.60
2024-04-12T14:06:36.076Z,24.72
2024-04-12T14:09:14.303Z,24.45
2024-04-12T14:11:42.238Z,24.47
2024-04-12T14:14:10.040Z,24.32
2024-04-12T14:16:43.477Z,23.90
2024-04-12T14:19:19.474Z,23.56
2024-04-12T14:21:48.889Z,23.49
2024-04-12T14:24:35.936Z,23.66
2024-04-12T14:27:03.318Z,23.44
2024-04-12T14:29:31.983Z,23.12
2024-04-12T14:32:06.790Z,23.21
2024-04-12T14:34:36.203Z,23.05
2024-04-12T14:37:06.561Z,22.84
2024-04-12T14:39:34.194Z,22.76
2024-04-12T14:42:02.318Z,22.08
2024-04-12T14:44:30.739Z,22.24
2024-04-12T14:46:58.673Z,22.23
2024-04-12T14:49:26.027Z,22.23
2024-04-12T14:51:56.319Z,21.97
2024-04-12T14:54:24.724Z,21.90
2024-04-12T14:56:54.649Z,21.70
2024-04-12T14:59:22.839Z,21.15
2024-04-12T15:01:49.935Z,21.23
2024-04-12T15:04:35.655Z,20.80
2024-04-12T15:07:21.239Z,20.83
2024-04-12T15:10:06.656Z,20.64
2024-04-12T15:12:52.334Z,20.39
2024-04-12T15:15:37.766Z,20.16
2024-04-12T15:18:23.978Z,19.97
2024-04-12T15:21:09.650Z,19.70
2024-04-12T15:23:55.227Z,19.48
2024-04-12T15:26:40.964Z,19.23
2024-04-12T15:29:26.313Z,19.06
2024-04-12T15:32:11.929Z,19.05
2024-04-12T15:34:57.629Z,18.76
2024-04-12T15:37:43.055Z,18.77
2024-04-12T15:40:29.333Z,18.67
2024-04-12T15:43:14.792Z,18.47
2024-04-12T15:46:00.548Z,18.35
2024-04-12T15:48:30.202Z,18.29
2024-04-12T15:50:57.967Z,18.20
2024-04-12T15:53:28.106Z,18.27
2024-04-12T15:55:55.327Z,18.20
2024-04-12T15:58:44.874Z,17.97
2024-04-12T16:01:30.868Z,18.34
2024-04-12T16:04:17.509Z,18.11
2024-04-12T16:10:29.618Z,17.75
2024-04-12T16:12:56.669Z,17.67
2024-04-12T16:15:23.657Z,17.60
2024-04-12T16:17:50.834Z,17.64
2024-04-12T16:20:17.908Z,17.30
2024-04-12T16:22:44.817Z,17.24
2024-04-12T16:25:11.967Z,17.00
2024-04-12T16:27:38.855Z,16.95
2024-04-12T16:30:06.132Z,17.01
2024-04-12T16:32:33.051Z,16.97
2024-04-12T16:34:59.982Z,16.82
2024-04-12T16:37:27.245Z,16.24
2024-04-12T16:39:54.240Z,16.70
2024-04-12T16:42:21.306Z,16.43
2024-04-12T16:44:48.352Z,16.63
2024-04-12T16:47:15.869Z,16.56
2024-04-12T16:49:42.830Z,16.48
2024-04-12T16:52:09.842Z,16.31
2024-04-12T16:54:36.766Z,16.23
2024-04-12T16:57:06.524Z,16.39
2024-04-12T16:59:36.844Z,16.20
2024-04-12T17:02:04.208Z,16.07
2024-04-12T17:04:31.174Z,16.08
2024-04-12T17:06:58.141Z,15.75
2024-04-12T17:09:26.112Z,15.75
2024-04-12T17:11:53.121Z,15.01
2024-04-12T17:14:20.089Z,15.50
2024-04-12T17:16:49.678Z,15.16
2024-04-12T17:19:16.500Z,15.69
2024-04-12T17:21:43.539Z,15.04
2024-04-12T17:24:14.913Z,15.05
2024-04-12T17:26:43.618Z,14.98
2024-04-12T17:29:10.646Z,14.86
2024-04-12T17:31:40.625Z,14.60
2024-04-12T17:34:10.745Z,14.83
2024-04-12T17:36:37.827Z,14.58
2024-04-12T17:39:13.234Z,14.26
2024-04-12T17:41:40.744Z,13.82
2024-04-12T17:44:08.614Z,14.07
2024-04-12T17:46:36.626Z,14.15
2024-04-12T17:49:06.654Z,14.09
2024-04-12T17:51:34.187Z,13.97
2024-04-12T17:54:01.380Z,13.89
2024-04-12T17:56:28.312Z,13.45
2024-04-12T17:58:55.291Z,13.47
2024-04-12T18:01:24.968Z,13.58
2024-04-12T18:03:53.038Z,13.18
2024-04-12T18:06:20.107Z,13.41
2024-04-12T18:08:47.080Z,13.26
2024-04-12T18:11:15.415Z,13.22
2024-04-12T18:13:43.093Z,13.27
2024-04-12T18:16:11.546Z,13.07
2024-04-12T18:18:38.664Z,13.02
2024-04-12T18:21:07.950Z,13.12
2024-04-12T18:23:36.735Z,12.81
2024-04-12T18:26:04.153Z,12.84
2024-04-12T18:28:31.210Z,12.67
2024-04-12T18:31:00.450Z,12.67
2024-04-12T18:33:27.496Z,12.26
2024-04-12T18:35:55.709Z,12.33
2024-04-12T18:38:41.510Z,12.63
2024-04-12T18:41:27.575Z,12.07
2024-04-12T18:44:13.194Z,12.12
2024-04-12T18:46:40.511Z,12.27
2024-04-12T18:49:09.384Z,11.71
2024-04-12T18:51:36.414Z,12.03
2024-04-12T18:54:05.036Z,12.11
2024-04-12T18:56:32.033Z,12.13
2024-04-12T18:59:01.366Z,11.72
2024-04-12T19:01:28.399Z,11.83
2024-04-12T19:03:56.324Z,12.03
2024-04-12T19:06:24.202Z,11.97
2024-04-12T19:08:51.554Z,11.92
2024-04-12T19:11:22.418Z,11.90
2024-04-12T19:13:50.228Z,11.78
2024-04-12T19:16:17.378Z,11.24
2024-04-12T19:18:44.686Z,11.23
2024-04-12T19:21:11.893Z,10.95
2024-04-12T19:23:39.782Z,11.64
2024-04-12T19:26:06.752Z,11.32
2024-04-12T19:28:33.873Z,11.44
2024-04-12T19:31:05.294Z,11.28
2024-04-12T19:33:33.119Z,11.16
2024-04-12T19:36:04.560Z,11.07
2024-04-12T19:38:34.166Z,11.34
2024-04-12T19:41:02.728Z,11.34
2024-04-12T19:43:33.672Z,11.29
2024-04-12T19:46:01.359Z,11.24
2024-04-12T19:48:28.914Z,11.20
2024-04-12T19:50:56.325Z,11.15
2024-04-12T19:53:24.838Z,10.84
2024-04-12T19:55:59.925Z,10.92
2024-04-12T19:58:27.563Z,11.02
2024-04-12T20:00:56.221Z,10.97
2024-04-12T20:03:26.363Z,10.89
2024-04-12T20:05:53.902Z,10.90
2024-04-12T20:08:22.127Z,10.54
2024-04-12T20:11:03.527Z,10.94
2024-04-12T20:13:31.952Z,10.77
2024-04-12T20:15:59.705Z,10.46
2024-04-12T20:18:27.850Z,10.68
2024-04-12T20:21:02.627Z,10.73
2024-04-12T20:23:31.162Z,10.37
2024-04-12T20:26:03.167Z,10.28
2024-04-12T20:28:30.117Z,10.29
2024-04-12T20:31:26.320Z,10.07
2024-04-12T20:34:04.497Z,10.26
2024-04-12T20:36:40.099Z,10.18
2024-04-12T20:39:18.440Z,10.08
2024-04-12T20:41:50.322Z,10.05
2024-04-12T20:44:19.404Z,10.28
2024-04-12T20:46:48.258Z,10.26
2024-04-12T20:49:15.970Z,10.22
2024-04-12T20:51:44.489Z,10.13
2024-04-12T20:54:12.256Z,10.01
2024-04-12T20:56:39.812Z,9.48
2024-04-12T20:59:06.751Z,10.00
2024-04-12T21:01:42.513Z,9.87
2024-04-12T21:04:10.306Z,9.88
2024-04-12T21:06:37.384Z,8.80
2024-04-12T21:09:05.805Z,9.81
2024-04-12T21:11:32.929Z,9.72
2024-04-12T21:14:00.265Z,9.72
2024-04-12T21:16:29.272Z,9.82
2024-04-12T21:18:56.324Z,9.73
2024-04-12T21:21:23.447Z,9.24
2024-04-12T21:23:50.442Z,8.99
2024-04-12T21:26:28.143Z,9.77
2024-04-12T21:28:55.528Z,9.28
2024-04-12T21:31:23.386Z,9.40
2024-04-12T21:33:50.789Z,9.56
2024-04-12T21:36:21.786Z,9.51
2024-04-12T21:38:48.917Z,9.24
2024-04-12T21:41:21.544Z,9.47
2024-04-12T21:43:49.899Z,9.19
2024-04-12T21:46:20.085Z,9.43
2024-04-12T21:48:48.771Z,9.22
2024-04-12T21:51:28.219Z,9.24
2024-04-12T21:53:55.461Z,9.11
2024-04-12T21:56:22.812Z,8.97
2024-04-12T21:58:53.350Z,8.71
2024-04-12T22:01:21.020Z,8.91
2024-04-12T22:03:48.714Z,9.14
2024-04-12T22:06:16.173Z,9.15
2024-04-12T22:08:43.480Z,9.05
2024-04-12T22:11:10.684Z,8.11
2024-04-12T22:13:38.395Z,8.94
2024-04-12T22:16:11.401Z,9.05
2024-04-12T22:18:40.006Z,8.99
2024-04-12T22:21:12.263Z,9.04
2024-04-12T22:23:41.381Z,8.84
2024-04-12T22:26:10.102Z,8.92
2024-04-12T22:28:41.178Z,8.69
2024-04-12T22:31:18.776Z,8.90
2024-04-12T22:33:47.440Z,8.76
2024-04-12T22:36:15.206Z,8.63
2024-04-12T22:38:42.398Z,8.59
2024-04-12T22:41:09.476Z,8.79
2024-04-12T22:43:36.507Z,8.78
2024-04-12T22:46:04.478Z,8.93
2024-04-12T22:48:31.803Z,8.83
2024-04-12T22:50:59.141Z,8.73
2024-04-12T22:53:26.479Z,8.49
2024-04-12T22:55:53.502Z,8.89
2024-04-12T22:58:21.078Z,8.64
2024-04-12T23:00:48.042Z,8.76
2024-04-12T23:03:19.318Z,8.86
2024-04-12T23:05:46.318Z,8.92
2024-04-12T23:08:14.591Z,8.94
2024-04-12T23:10:41.489Z,8.84
2024-04-12T23:13:08.446Z,8.65
2024-04-12T23:15:37.201Z,8.90
2024-04-12T23:18:06.283Z,8.97
2024-04-12T23:20:33.360Z,8.88
2024-04-12T23:23:00.309Z,8.96
2024-04-12T23:25:27.211Z,8.68
2024-04-12T23:27:54.134Z,8.62
2024-04-12T23:30:21.210Z,9.16
2024-04-12T23:32:48.280Z,8.84
2024-04-12T23:35:15.451Z,8.75
2024-04-12T23:37:42.387Z,9.01
2024-04-12T23:40:09.845Z,8.87
2024-04-12T23:42:36.907Z,9.00
2024-04-12T23:45:04.221Z,8.89
2024-04-12T23:47:31.439Z,8.93
2024-04-12T23:49:58.489Z,8.53
2024-04-12T23:52:27.346Z,8.11
2024-04-12T23:54:54.455Z,8.87
2024-04-12T23:57:21.704Z,9.19
2024-04-12T23:59:49.002Z,9.06
